Swift Arrow — WAFK — position and weather

sailwx.info

Track history (hours):
 
Tides and Currents Weather Stations Pressure Air Temp Water Temp Dewpoint Dewpoint Depression Visibility Wind Speed Wind Dir Waves Ship Positions

Swift Arrow

Owner: ARROW LAUNCH SERVICE INC, Port Angeles, WA. More information available from US FCC via Universal Licensing System and Coast Guard Vessel Documentation Center.

Last reported at 2014-Nov-01 01:26 UTC. Time now 2014-Nov-01 07:45 UTC.
Position N 47°15' W 122°26'.

Type: Port tender. MMSI: 369021000.

Date/timePositionNaut miles runAvg speedWind from/ knotsBaromVisibWave heightAir tempDewpointWater temp
2014-Nov-01 01:26N 47°15' W 122°26'3 0.8
2014-Oct-31 21:34N 47°18' W 122°29'0 0.2
2014-Oct-31 20:34N 47°18' W 122°29'2 1.8
2014-Oct-31 19:33N 47°17' W 122°26'0 0.3
2014-Oct-31 18:33N 47°17' W 122°27'2 1.0
2014-Oct-31 17:04N 47°15' W 122°26'2 3.0
2014-Oct-31 16:34N 47°17' W 122°26'2 1.3
2014-Oct-31 15:09N 47°15' W 122°26'2 2.7
2014-Oct-31 14:34N 47°17' W 122°26'2 1.6
2014-Oct-31 13:33N 47°15' W 122°26'0 0.0
2014-Oct-31 01:29N 47°15' W 122°26'1 0.4
2014-Oct-30 23:34N 47°16' W 122°26'1 1.3
2014-Oct-30 22:34N 47°17' W 122°25'1 0.3
2014-Oct-30 20:33N 47°17' W 122°24'1 0.6
2014-Oct-30 19:33N 47°17' W 122°25'0 0.1
2014-Oct-30 18:33N 47°17' W 122°25'1 1.3
2014-Oct-30 17:33N 47°17' W 122°27'1 0.6
2014-Oct-30 16:33N 47°17' W 122°26'1 0.7
2014-Oct-30 14:33N 47°16' W 122°26'0 0.2
2014-Oct-30 13:33N 47°15' W 122°26'2 0.2
2014-Oct-30 04:34N 47°17' W 122°25'1 0.7
2014-Oct-30 03:33N 47°17' W 122°24'0 0.0
2014-Oct-30 02:33N 47°17' W 122°25'1 0.9
2014-Oct-30 01:33N 47°17' W 122°26'1 1.4
2014-Oct-30 00:33N 47°16' W 122°26'6 5.9
2014-Oct-29 23:34N 47°21' W 122°23'1514.7
2014-Oct-29 22:34N 47°36' W 122°24'3 0.2
2014-Oct-29 07:33N 47°34' W 122°21'3 2.8
2014-Oct-29 06:33N 47°36' W 122°24'2 2.3
2014-Oct-29 05:33N 47°36' W 122°20'2 0.2
2014-Oct-28 18:18N 47°34' W 122°21'4 4.9
2014-Oct-28 17:31N 47°38' W 122°23'3 3.2
2014-Oct-28 16:33N 47°35' W 122°22'3 2.8
2014-Oct-28 15:33N 47°37' W 122°24'3 0.3
2014-Oct-28 06:34N 47°35' W 122°22'3 2.5
2014-Oct-28 05:33N 47°37' W 122°24'3 2.6
2014-Oct-28 04:33N 47°35' W 122°22'1 1.0
2014-Oct-28 03:32N 47°34' W 122°21'0 0.0
2014-Oct-26 19:33N 47°34' W 122°21'3 2.9
2014-Oct-26 18:25N 47°37' W 122°23'1 1.5
2014-Oct-26 17:34N 47°36' W 122°22'2 0.1
2014-Oct-25 20:23N 47°34' W 122°21'2 2.2
2014-Oct-25 19:34N 47°36' W 122°22'0 0.2
2014-Oct-25 18:33N 47°36' W 122°22'2 1.9
2014-Oct-25 17:33N 47°37' W 122°24'0 0.1
2014-Oct-25 16:33N 47°37' W 122°24'4 3.8
2014-Oct-25 15:33N 47°34' W 122°21'1 0.8
2014-Oct-25 14:33N 47°35' W 122°22'1 0.8
2014-Oct-25 13:33N 47°34' W 122°21'0 0.0
2014-Oct-25 01:14N 47°34' W 122°21'3 4.9
2014-Oct-25 00:33N 47°32' W 122°25'1716.6
2014-Oct-24 23:33N 47°16' W 122°26'0 0.1
2014-Oct-24 19:33N 47°15' W 122°26'4 4.1
2014-Oct-24 18:34N 47°18' W 122°30'3 3.1
2014-Oct-24 17:33N 47°16' W 122°27'1 0.5
2014-Oct-24 16:33N 47°17' W 122°26'0 0.0
2014-Oct-24 00:33N 47°17' W 122°26'0 0.2
2014-Oct-23 23:33N 47°17' W 122°26'1 1.2
2014-Oct-23 22:33N 47°16' W 122°26'1 1.3
2014-Oct-23 21:31N 47°17' W 122°26'1 0.5
2014-Oct-23 20:33N 47°17' W 122°27'2 0.1
2014-Oct-22 16:05N 47°15' W 122°26'2 4.2
2014-Oct-22 15:33N 47°17' W 122°25'  
Track history (hours):
 
Tides and Currents Weather Stations Pressure Air Temp Water Temp Dewpoint Dewpoint Depression Visibility Wind Speed Wind Dir Waves Ship Positions

Swift Arrow

Owner: ARROW LAUNCH SERVICE INC, Port Angeles, WA. More information available from US FCC via Universal Licensing System and Coast Guard Vessel Documentation Center.

Last reported at 2014-Nov-01 01:26 UTC. Time now 2014-Nov-01 07:45 UTC.
Position N 47°15' W 122°26'.

Type: Port tender. MMSI: 369021000.

Date/timePositionNaut miles runAvg speedWind from/ knotsBaromVisibWave heightAir tempDewpointWater temp
2014-Nov-01 01:26N 47°15' W 122°26'3 0.8
2014-Oct-31 21:34N 47°18' W 122°29'0 0.2
2014-Oct-31 20:34N 47°18' W 122°29'2 1.8
2014-Oct-31 19:33N 47°17' W 122°26'0 0.3
2014-Oct-31 18:33N 47°17' W 122°27'2 1.0
2014-Oct-31 17:04N 47°15' W 122°26'2 3.0
2014-Oct-31 16:34N 47°17' W 122°26'2 1.3
2014-Oct-31 15:09N 47°15' W 122°26'2 2.7
2014-Oct-31 14:34N 47°17' W 122°26'2 1.6
2014-Oct-31 13:33N 47°15' W 122°26'0 0.0
2014-Oct-31 01:29N 47°15' W 122°26'1 0.4
2014-Oct-30 23:34N 47°16' W 122°26'1 1.3
2014-Oct-30 22:34N 47°17' W 122°25'1 0.3
2014-Oct-30 20:33N 47°17' W 122°24'1 0.6
2014-Oct-30 19:33N 47°17' W 122°25'0 0.1
2014-Oct-30 18:33N 47°17' W 122°25'1 1.3
2014-Oct-30 17:33N 47°17' W 122°27'1 0.6
2014-Oct-30 16:33N 47°17' W 122°26'1 0.7
2014-Oct-30 14:33N 47°16' W 122°26'0 0.2
2014-Oct-30 13:33N 47°15' W 122°26'2 0.2
2014-Oct-30 04:34N 47°17' W 122°25'1 0.7
2014-Oct-30 03:33N 47°17' W 122°24'0 0.0
2014-Oct-30 02:33N 47°17' W 122°25'1 0.9
2014-Oct-30 01:33N 47°17' W 122°26'1 1.4
2014-Oct-30 00:33N 47°16' W 122°26'6 5.9
2014-Oct-29 23:34N 47°21' W 122°23'1514.7
2014-Oct-29 22:34N 47°36' W 122°24'3 0.2
2014-Oct-29 07:33N 47°34' W 122°21'3 2.8
2014-Oct-29 06:33N 47°36' W 122°24'2 2.3
2014-Oct-29 05:33N 47°36' W 122°20'2 0.2
2014-Oct-28 18:18N 47°34' W 122°21'4 4.9
2014-Oct-28 17:31N 47°38' W 122°23'3 3.2
2014-Oct-28 16:33N 47°35' W 122°22'3 2.8
2014-Oct-28 15:33N 47°37' W 122°24'3 0.3
2014-Oct-28 06:34N 47°35' W 122°22'3 2.5
2014-Oct-28 05:33N 47°37' W 122°24'3 2.6
2014-Oct-28 04:33N 47°35' W 122°22'1 1.0
2014-Oct-28 03:32N 47°34' W 122°21'0 0.0
2014-Oct-26 19:33N 47°34' W 122°21'3 2.9
2014-Oct-26 18:25N 47°37' W 122°23'1 1.5
2014-Oct-26 17:34N 47°36' W 122°22'2 0.1
2014-Oct-25 20:23N 47°34' W 122°21'2 2.2
2014-Oct-25 19:34N 47°36' W 122°22'0 0.2
2014-Oct-25 18:33N 47°36' W 122°22'2 1.9
2014-Oct-25 17:33N 47°37' W 122°24'0 0.1
2014-Oct-25 16:33N 47°37' W 122°24'4 3.8
2014-Oct-25 15:33N 47°34' W 122°21'1 0.8
2014-Oct-25 14:33N 47°35' W 122°22'1 0.8
2014-Oct-25 13:33N 47°34' W 122°21'0 0.0
2014-Oct-25 01:14N 47°34' W 122°21'3 4.9
2014-Oct-25 00:33N 47°32' W 122°25'1716.6
2014-Oct-24 23:33N 47°16' W 122°26'0 0.1
2014-Oct-24 19:33N 47°15' W 122°26'4 4.1
2014-Oct-24 18:34N 47°18' W 122°30'3 3.1
2014-Oct-24 17:33N 47°16' W 122°27'1 0.5
2014-Oct-24 16:33N 47°17' W 122°26'0 0.0
2014-Oct-24 00:33N 47°17' W 122°26'0 0.2
2014-Oct-23 23:33N 47°17' W 122°26'1 1.2
2014-Oct-23 22:33N 47°16' W 122°26'1 1.3
2014-Oct-23 21:31N 47°17' W 122°26'1 0.5
2014-Oct-23 20:33N 47°17' W 122°27'2 0.1
2014-Oct-22 16:05N 47°15' W 122°26'2 4.2
2014-Oct-22 15:33N 47°17' W 122°25'  

Dump ship's entire track history